Reno, Minnesota
Current Conditions -  °F | °C
As of 3:53 PM on Monday 26 Jan 2015 (Local Time) from KLSE Reporting Station
Overcast Overcast  
Wind Chill: 23°   Ceiling: 1700
Heat Index: 30°   Visibility: 8mi
Dew Point: 26°   Wind: 7mph
Humidity: 85%   Direction: 170°S
Pressure: 29.78"   Gusts: NA
Location:  43.6451°N, 91.3164°W
Report Text: KLSE 262153Z 17006KT 8SM OVC017 M01/M03 A2978 RMK AO2 SLP099 T10111033
Loading
Personal Weather Stations






























Interactive Weather Map New forecast layout! Learn more

10-Day Weather Forecast

Advertisements
Track Severe Weather on mobile